Time;durP1;ratioP1;P1;durP2;ratioP2;P2;SDS_P1;SDS_P2;PMS_P1;PMS_P2;Temp;Humidity;BMP_temperature;BMP_pressure;BME280_temperature;BME280_humidity;BME280_pressure;Samples;Min_cycle;Max_cycle;Signal;HPM_P1;HPM_P2
2022/05/08 00:00:59;;;;;;;;;;;17.60;99.90;;;;;;5024511;28;19913;-79
2022/05/08 00:03:25;;;;;;;;;;;17.60;99.90;;;;;;5019819;28;19924;-79
2022/05/08 00:05:51;;;;;;;;;;;17.80;99.90;;;;;;5023716;28;19913;-79
2022/05/08 00:08:17;;;;;;;;;;;17.70;99.90;;;;;;5026285;28;19917;-79
2022/05/08 00:10:43;;;;;;;;;;;17.70;99.90;;;;;;5030357;28;20493;-78
2022/05/08 00:13:11;;;;;;;;;;;17.60;99.90;;;;;;5027201;28;19921;-78
2022/05/08 00:16:01;;;;;;;;;;;17.50;99.90;;;;;;5025050;28;19921;-79
2022/05/08 00:18:31;;;;;;;;;;;17.40;99.90;;;;;;5019863;28;19921;-79
2022/05/08 00:20:57;;;;;;;;;;;17.40;99.90;;;;;;5024987;28;19996;-78
2022/05/08 00:23:23;;;;;;;;;;;17.40;99.90;;;;;;5031139;28;19920;-78
2022/05/08 00:25:49;;;;;;;;;;;17.60;99.90;;;;;;5034879;28;19909;-78
2022/05/08 00:28:14;;;;;;;;;;;17.50;99.90;;;;;;5031722;28;20002;-78
2022/05/08 00:30:43;;;;;;;;;;;17.40;99.90;;;;;;5012865;28;19968;-80
2022/05/08 00:33:09;;;;;;;;;;;17.40;99.90;;;;;;5018504;28;19916;-78
2022/05/08 00:35:35;;;;;;;;;;;17.40;99.90;;;;;;5025996;28;19917;-80
2022/05/08 00:38:01;;;;;;;;;;;17.40;99.90;;;;;;5017900;28;20387;-79
2022/05/08 00:40:27;;;;;;;;;;;17.40;99.90;;;;;;5007008;28;19910;-78
2022/05/08 00:42:53;;;;;;;;;;;17.20;99.90;;;;;;5017194;28;19921;-79
2022/05/08 00:45:24;;;;;;;;;;;17.20;99.90;;;;;;5001978;28;19920;-78
2022/05/08 00:47:54;;;;;;;;;;;17.10;99.90;;;;;;5024144;28;19948;-80
2022/05/08 00:50:22;;;;;;;;;;;17.10;99.90;;;;;;5001432;28;19978;-79
2022/05/08 00:52:51;;;;;;;;;;;17.10;99.90;;;;;;5019859;28;19918;-78
2022/05/08 00:55:20;;;;;;;;;;;17.20;99.90;;;;;;5028831;28;19991;-79
2022/05/08 00:57:45;;;;;;;;;;;17.20;99.90;;;;;;5025454;28;19936;-79
2022/05/08 01:00:11;;;;;;;;;;;17.30;99.90;;;;;;5020462;28;20016;-78
2022/05/08 01:02:37;;;;;;;;;;;17.40;99.90;;;;;;5010542;28;20370;-78
2022/05/08 01:05:07;;;;;;;;;;;17.40;99.90;;;;;;5018823;28;19956;-78
2022/05/08 01:07:33;;;;;;;;;;;17.40;99.90;;;;;;4994683;28;19956;-81
2022/05/08 01:10:01;;;;;;;;;;;17.40;99.90;;;;;;5022910;28;20302;-79
2022/05/08 01:12:27;;;;;;;;;;;17.50;99.90;;;;;;5024523;28;19913;-79
2022/05/08 01:15:20;;;;;;;;;;;17.50;99.90;;;;;;5014699;28;19921;-79
2022/05/08 01:17:47;;;;;;;;;;;17.70;99.90;;;;;;5000134;28;20433;-78
2022/05/08 01:20:22;;;;;;;;;;;17.60;99.90;;;;;;5013825;28;19914;-79
2022/05/08 01:22:51;;;;;;;;;;;17.60;99.90;;;;;;5015546;28;20000;-78
2022/05/08 01:25:17;;;;;;;;;;;17.60;99.90;;;;;;5017908;28;19913;-78
2022/05/08 01:27:42;;;;;;;;;;;17.60;99.90;;;;;;5013775;28;19956;-77
2022/05/08 01:33:14;;;;;;;;;;;17.60;99.90;;;;;;5010907;28;19928;-78
2022/05/08 01:35:42;;;;;;;;;;;17.70;99.90;;;;;;5012647;28;19913;-78
2022/05/08 01:38:09;;;;;;;;;;;17.80;99.90;;;;;;5018287;28;20000;-79
2022/05/08 01:40:38;;;;;;;;;;;17.70;99.90;;;;;;5026013;28;20413;-78
2022/05/08 01:43:04;;;;;;;;;;;17.60;99.90;;;;;;5021571;28;19913;-78
2022/05/08 01:45:30;;;;;;;;;;;17.60;99.90;;;;;;5017709;28;20392;-80
2022/05/08 01:50:40;;;;;;;;;;;17.60;99.90;;;;;;5025130;28;19919;-80
2022/05/08 01:53:06;;;;;;;;;;;17.50;99.90;;;;;;4998779;28;19909;-78
2022/05/08 01:55:32;;;;;;;;;;;17.40;99.90;;;;;;5020041;28;19913;-78
2022/05/08 01:57:58;;;;;;;;;;;17.50;99.90;;;;;;5024499;28;20291;-77
2022/05/08 02:00:25;;;;;;;;;;;17.50;99.90;;;;;;5021881;28;20179;-78
2022/05/08 02:02:51;;;;;;;;;;;17.50;99.90;;;;;;5022807;28;20383;-78
2022/05/08 02:05:28;;;;;;;;;;;17.40;99.90;;;;;;5021000;28;19914;-79
2022/05/08 02:07:54;;;;;;;;;;;17.40;99.90;;;;;;5001394;28;19918;-78
2022/05/08 02:10:23;;;;;;;;;;;17.40;99.90;;;;;;5020905;28;19914;-78
2022/05/08 02:12:49;;;;;;;;;;;17.30;99.90;;;;;;5019521;28;19918;-78
2022/05/08 02:15:15;;;;;;;;;;;17.30;99.90;;;;;;5020673;28;20186;-78
2022/05/08 02:17:43;;;;;;;;;;;17.30;99.90;;;;;;5025344;28;19959;-78
2022/05/08 02:20:09;;;;;;;;;;;17.40;99.90;;;;;;5018911;28;19917;-78
2022/05/08 02:22:38;;;;;;;;;;;17.30;99.90;;;;;;5022413;28;19921;-77
2022/05/08 02:25:05;;;;;;;;;;;17.30;99.90;;;;;;5023493;28;19917;-77
2022/05/08 02:27:34;;;;;;;;;;;17.10;99.90;;;;;;4992621;28;19913;-78
2022/05/08 02:30:00;;;;;;;;;;;17.10;99.90;;;;;;5017999;28;19975;-78
2022/05/08 02:32:26;;;;;;;;;;;17.20;99.90;;;;;;5021425;28;20024;-78
2022/05/08 02:34:51;;;;;;;;;;;17.20;99.90;;;;;;5025799;28;19960;-78
2022/05/08 02:37:17;;;;;;;;;;;17.20;99.90;;;;;;5022487;28;19918;-78
2022/05/08 02:39:43;;;;;;;;;;;17.20;99.90;;;;;;5019342;28;19947;-78
2022/05/08 02:42:09;;;;;;;;;;;17.20;99.90;;;;;;5020219;28;20337;-77
2022/05/08 02:44:35;;;;;;;;;;;17.20;99.90;;;;;;5026648;28;19909;-77
2022/05/08 02:47:03;;;;;;;;;;;17.30;99.90;;;;;;4995208;28;19955;-78
2022/05/08 02:49:29;;;;;;;;;;;17.20;99.90;;;;;;5026445;28;19909;-77
2022/05/08 02:51:55;;;;;;;;;;;17.20;99.90;;;;;;5011660;28;20073;-77
2022/05/08 02:54:24;;;;;;;;;;;17.10;99.90;;;;;;5016691;28;19976;-77
2022/05/08 02:59:43;;;;;;;;;;;16.70;99.90;;;;;;5026885;28;20018;-77
2022/05/08 03:02:09;;;;;;;;;;;16.50;99.90;;;;;;5002826;28;19913;-77
2022/05/08 03:04:45;;;;;;;;;;;16.40;99.90;;;;;;5022356;28;19914;-77
2022/05/08 03:07:11;;;;;;;;;;;16.20;99.90;;;;;;5004235;28;20359;-77
2022/05/08 03:09:43;;;;;;;;;;;16.10;99.90;;;;;;5017046;28;19917;-76
2022/05/08 03:12:12;;;;;;;;;;;16.10;99.90;;;;;;5021557;28;20636;-77
2022/05/08 03:14:45;;;;;;;;;;;16.10;99.90;;;;;;5027064;28;20314;-77
2022/05/08 03:17:11;;;;;;;;;;;16.20;99.90;;;;;;5019710;28;19924;-77
2022/05/08 03:19:37;;;;;;;;;;;16.20;99.90;;;;;;5018864;28;19913;-78
2022/05/08 03:22:03;;;;;;;;;;;16.20;99.90;;;;;;5017050;28;19967;-77
2022/05/08 03:27:17;;;;;;;;;;;16.20;99.90;;;;;;4938380;29;19914;-78
2022/05/08 03:29:43;;;;;;;;;;;16.20;99.90;;;;;;5005322;28;19936;-77
2022/05/08 03:32:09;;;;;;;;;;;16.20;99.90;;;;;;5017381;28;19957;-78
2022/05/08 03:34:35;;;;;;;;;;;16.20;99.90;;;;;;5021685;28;19933;-77
2022/05/08 03:37:14;;;;;;;;;;;;;;;;;;;;;
2022/05/08 03:39:40;;;;;;;;;;;16.30;99.90;;;;;;5022938;28;20375;-77
2022/05/08 03:42:06;;;;;;;;;;;16.40;99.90;;;;;;5017409;28;19913;-78
2022/05/08 03:44:32;;;;;;;;;;;16.30;99.90;;;;;;5024174;28;20003;-80
2022/05/08 03:46:58;;;;;;;;;;;16.30;99.90;;;;;;5022150;28;20382;-78
2022/05/08 03:49:25;;;;;;;;;;;16.40;99.90;;;;;;5029998;28;19920;-77
2022/05/08 03:51:50;;;;;;;;;;;16.40;99.90;;;;;;5017867;28;20003;-78
2022/05/08 03:54:36;;;;;;;;;;;16.40;99.90;;;;;;5021998;28;19949;-77
2022/05/08 03:57:05;;;;;;;;;;;16.40;99.90;;;;;;5004709;28;20378;-77
2022/05/08 03:59:34;;;;;;;;;;;16.50;99.90;;;;;;5027230;28;19920;-79
2022/05/08 04:10:57;;;;;;;;;;;16.90;99.90;;;;;;5023098;28;19963;-77
2022/05/08 04:13:23;;;;;;;;;;;16.90;99.90;;;;;;5028782;28;19960;-78
2022/05/08 04:25:18;;;;;;;;;;;;;;;;;;;;;
2022/05/08 04:28:07;;;;;;;;;;;;;;;;;;;;;
2022/05/08 04:31:21;;;;;;;;;;;17.10;99.90;;;;;;4980797;28;19913;-78
2022/05/08 04:34:05;;;;;;;;;;;17.20;99.90;;;;;;4940220;29;19911;-77
2022/05/08 04:37:31;;;;;;;;;;;17.30;99.90;;;;;;4940765;29;19921;-78
2022/05/08 04:39:46;;;;;;;;;;;17.30;99.90;;;;;;4942887;29;19915;-77
2022/05/08 04:42:11;;;;;;;;;;;17.40;99.90;;;;;;4995779;28;19913;-78
2022/05/08 04:50:36;;;;;;;;;;;17.60;99.90;;;;;;5007603;28;19974;-77
2022/05/08 04:53:02;;;;;;;;;;;17.50;99.90;;;;;;5016280;28;19925;-77
2022/05/08 04:55:28;;;;;;;;;;;17.50;99.90;;;;;;5016177;28;19909;-80
2022/05/08 04:58:14;;;;;;;;;;;17.50;99.90;;;;;;5021992;28;19913;-78
2022/05/08 05:00:43;;;;;;;;;;;17.50;99.90;;;;;;5015472;28;19918;-79
2022/05/08 05:03:09;;;;;;;;;;;17.50;99.90;;;;;;5016871;28;19920;-77
2022/05/08 05:05:44;;;;;;;;;;;17.50;99.90;;;;;;5007949;28;19914;-78
2022/05/08 05:08:22;;;;;;;;;;;17.50;99.90;;;;;;5016401;28;19913;-77
2022/05/08 05:10:50;;;;;;;;;;;17.50;99.90;;;;;;5016288;28;20384;-78
2022/05/08 05:13:19;;;;;;;;;;;17.50;99.90;;;;;;5015456;28;19917;-78
2022/05/08 05:25:04;;;;;;;;;;;17.40;99.90;;;;;;5036609;28;19920;-78
2022/05/08 05:27:30;;;;;;;;;;;17.40;99.90;;;;;;5036383;28;20359;-78
2022/05/08 05:30:16;;;;;;;;;;;17.50;99.90;;;;;;5024079;28;19925;-77
2022/05/08 05:32:44;;;;;;;;;;;17.40;99.90;;;;;;5011897;28;19921;-78
2022/05/08 05:38:16;;;;;;;;;;;17.60;99.90;;;;;;5002010;28;19939;-77
2022/05/08 05:43:46;;;;;;;;;;;17.70;99.90;;;;;;5015991;28;20005;-77
2022/05/08 05:49:30;;;;;;;;;;;;;;;;;;;;;
2022/05/08 05:51:48;;;;;;;;;;;17.90;99.90;;;;;;5002907;28;19922;-77
2022/05/08 05:57:42;;;;;;;;;;;17.90;99.90;;;;;;4939353;29;19920;-77
2022/05/08 06:00:10;;;;;;;;;;;18.00;99.90;;;;;;4938378;28;20392;-77
2022/05/08 06:06:18;;;;;;;;;;;18.00;99.90;;;;;;5017498;28;19941;-77
2022/05/08 06:11:54;;;;;;;;;;;;;;;;;;;;;
2022/05/08 06:20:29;;;;;;;;;;;18.10;99.90;;;;;;4886117;29;19964;-77
2022/05/08 06:22:55;;;;;;;;;;;18.20;99.90;;;;;;5000801;28;19974;-78
2022/05/08 06:28:34;;;;;;;;;;;18.20;99.90;;;;;;5019361;28;20035;-76
2022/05/08 06:43:16;;;;;;;;;;;18.20;99.90;;;;;;4923665;29;19922;-78
2022/05/08 06:45:59;;;;;;;;;;;18.20;99.90;;;;;;4921900;29;20292;-78
2022/05/08 06:52:08;;;;;;;;;;;18.30;99.90;;;;;;4932005;29;20021;-78
2022/05/08 06:54:47;;;;;;;;;;;18.30;99.90;;;;;;4898775;29;19915;-78
2022/05/08 07:18:38;;;;;;;;;;;18.80;99.90;;;;;;4796983;29;19925;-77
2022/05/08 07:21:11;;;;;;;;;;;18.90;99.90;;;;;;4797073;29;19927;-77
2022/05/08 07:33:25;;;;;;;;;;;19.20;99.90;;;;;;4795887;29;20372;-80
2022/05/08 07:38:34;;;;;;;;;;;19.30;99.90;;;;;;4909542;29;19983;-78
2022/05/08 07:41:17;;;;;;;;;;;19.40;99.90;;;;;;5021920;28;19913;-78
2022/05/08 07:43:47;;;;;;;;;;;19.50;99.90;;;;;;5019704;28;20346;-78
2022/05/08 07:46:42;;;;;;;;;;;19.60;99.90;;;;;;5018050;28;20006;-79
2022/05/08 07:49:31;;;;;;;;;;;;;;;;;;;;;
2022/05/08 07:52:28;;;;;;;;;;;19.70;99.90;;;;;;4987010;28;19936;-80
2022/05/08 07:54:54;;;;;;;;;;;19.90;99.90;;;;;;5020292;28;20014;-77
2022/05/08 08:00:09;;;;;;;;;;;20.10;99.90;;;;;;5022431;28;19948;-78
2022/05/08 08:02:44;;;;;;;;;;;19.90;99.90;;;;;;5016634;28;19923;-79
2022/05/08 08:11:21;;;;;;;;;;;20.00;99.90;;;;;;4928796;29;19926;-78
2022/05/08 08:17:08;;;;;;;;;;;;;;;;;;;;;
2022/05/08 08:23:07;;;;;;;;;;;20.30;99.90;;;;;;4939801;29;19926;-78
2022/05/08 08:26:15;;;;;;;;;;;20.20;99.90;;;;;;4928756;29;19915;-77
2022/05/08 08:28:25;;;;;;;;;;;20.40;99.90;;;;;;5014491;28;20313;-78
2022/05/08 08:31:04;;;;;;;;;;;20.50;99.90;;;;;;5025102;28;19913;-80
2022/05/08 08:36:17;;;;;;;;;;;20.80;99.90;;;;;;5018539;28;19944;-78
2022/05/08 09:00:32;;;;;;;;;;;20.70;99.90;;;;;;4975226;28;19933;-67
2022/05/08 09:06:14;;;;;;;;;;;20.70;99.90;;;;;;4977791;28;19972;-68
2022/05/08 09:08:56;;;;;;;;;;;20.60;99.90;;;;;;4983172;28;19937;-68
2022/05/08 09:11:32;;;;;;;;;;;20.90;99.90;;;;;;4997538;28;19967;-68
2022/05/08 09:13:57;;;;;;;;;;;21.10;99.90;;;;;;5028998;28;19913;-69
2022/05/08 09:16:50;;;;;;;;;;;21.20;99.90;;;;;;5028902;28;19909;-68
2022/05/08 09:19:28;;;;;;;;;;;21.40;99.90;;;;;;5012648;28;19918;-65
2022/05/08 09:21:58;;;;;;;;;;;21.20;99.90;;;;;;5022992;28;19968;-69
2022/05/08 09:24:26;;;;;;;;;;;21.30;99.90;;;;;;5024558;28;20015;-69
2022/05/08 09:30:26;;;;;;;;;;;21.20;99.90;;;;;;5027899;28;19919;-70
2022/05/08 09:32:52;;;;;;;;;;;21.30;99.90;;;;;;5013473;28;19921;-69
2022/05/08 09:38:40;;;;;;;;;;;21.70;99.90;;;;;;5023399;28;20009;-69
2022/05/08 09:41:12;;;;;;;;;;;21.80;99.90;;;;;;5018753;28;19924;-70
2022/05/08 09:43:41;;;;;;;;;;;21.40;99.90;;;;;;5005221;28;19935;-70
2022/05/08 09:46:09;;;;;;;;;;;21.40;99.90;;;;;;5019606;28;19968;-70
2022/05/08 09:48:44;;;;;;;;;;;21.50;99.90;;;;;;5009749;28;19913;-71
2022/05/08 09:51:10;;;;;;;;;;;22.00;99.90;;;;;;5018007;28;20008;-70
2022/05/08 09:53:37;;;;;;;;;;;22.20;99.90;;;;;;5024470;28;20409;-71
2022/05/08 09:56:04;;;;;;;;;;;22.20;99.90;;;;;;5025964;28;20008;-70
2022/05/08 09:58:30;;;;;;;;;;;22.00;99.90;;;;;;5020182;28;19913;-70
2022/05/08 10:00:56;;;;;;;;;;;22.20;99.90;;;;;;5009222;28;19922;-70
2022/05/08 10:03:22;;;;;;;;;;;22.30;99.90;;;;;;5015126;28;19913;-70
2022/05/08 10:05:48;;;;;;;;;;;22.30;99.90;;;;;;5021900;28;19960;-70
2022/05/08 10:08:20;;;;;;;;;;;22.10;99.90;;;;;;5019838;28;19914;-70
2022/05/08 10:16:46;;;;;;;;;;;21.80;99.90;;;;;;5022358;28;19955;-69
2022/05/08 10:19:38;;;;;;;;;;;21.90;99.90;;;;;;5015101;28;19920;-70
2022/05/08 10:22:07;;;;;;;;;;;22.00;99.90;;;;;;5012712;28;19925;-70
2022/05/08 10:24:47;;;;;;;;;;;22.30;99.90;;;;;;5021210;28;19959;-70
2022/05/08 10:27:18;;;;;;;;;;;22.30;99.90;;;;;;5018091;28;19975;-70
2022/05/08 10:32:46;;;;;;;;;;;22.30;99.90;;;;;;5021902;28;19928;-70
2022/05/08 10:35:13;;;;;;;;;;;22.50;99.90;;;;;;5016601;28;19917;-70
2022/05/08 10:37:39;;;;;;;;;;;22.50;99.90;;;;;;5024700;28;19924;-71
2022/05/08 10:40:43;;;;;;;;;;;22.50;99.90;;;;;;5022268;28;19913;-70
2022/05/08 10:43:25;;;;;;;;;;;22.50;99.90;;;;;;4999451;28;19992;-70
2022/05/08 10:45:51;;;;;;;;;;;22.30;99.90;;;;;;5016104;28;19988;-70
2022/05/08 10:48:17;;;;;;;;;;;22.20;99.90;;;;;;5023768;28;20342;-70
2022/05/08 10:51:01;;;;;;;;;;;22.20;99.90;;;;;;5017660;28;19921;-70
2022/05/08 10:53:33;;;;;;;;;;;22.30;99.90;;;;;;5024309;28;19924;-70
2022/05/08 10:56:09;;;;;;;;;;;22.40;99.90;;;;;;5003458;28;19913;-70
2022/05/08 10:58:37;;;;;;;;;;;22.20;99.90;;;;;;5021966;28;19913;-70
2022/05/08 11:01:15;;;;;;;;;;;22.10;99.90;;;;;;5019546;28;20402;-70
2022/05/08 11:03:41;;;;;;;;;;;22.20;99.90;;;;;;4995530;28;19964;-70
2022/05/08 11:06:06;;;;;;;;;;;22.40;99.90;;;;;;5024783;28;19995;-70
2022/05/08 11:08:33;;;;;;;;;;;22.40;99.90;;;;;;5017125;28;19999;-70
2022/05/08 11:11:07;;;;;;;;;;;22.40;99.90;;;;;;5025420;28;20287;-70
2022/05/08 11:13:43;;;;;;;;;;;22.30;99.90;;;;;;5016846;28;19922;-70
2022/05/08 11:16:09;;;;;;;;;;;22.20;99.90;;;;;;5012138;28;19914;-70
2022/05/08 11:18:34;;;;;;;;;;;22.30;99.90;;;;;;5015199;28;19921;-70
2022/05/08 11:21:02;;;;;;;;;;;22.60;99.90;;;;;;5012872;28;20354;-70
2022/05/08 11:23:29;;;;;;;;;;;22.60;99.90;;;;;;4994616;28;19914;-69
2022/05/08 11:25:56;;;;;;;;;;;22.60;99.90;;;;;;5015034;28;19913;-70
2022/05/08 11:28:25;;;;;;;;;;;22.60;99.90;;;;;;5016603;28;19917;-69
2022/05/08 11:30:51;;;;;;;;;;;22.70;99.90;;;;;;5021381;28;19913;-69
2022/05/08 11:36:41;;;;;;;;;;;22.60;99.90;;;;;;5021677;28;19920;-69
2022/05/08 11:39:22;;;;;;;;;;;22.60;99.90;;;;;;5020198;28;19913;-70
2022/05/08 11:41:57;;;;;;;;;;;22.50;99.90;;;;;;5024486;28;19956;-70
2022/05/08 11:44:55;;;;;;;;;;;22.60;99.90;;;;;;5020579;28;19918;-70
2022/05/08 11:47:20;;;;;;;;;;;22.60;99.90;;;;;;5011840;28;19932;-70
2022/05/08 11:49:46;;;;;;;;;;;22.80;99.90;;;;;;5019870;28;20362;-70
2022/05/08 11:52:22;;;;;;;;;;;22.70;99.90;;;;;;5020710;28;20016;-70
2022/05/08 11:54:59;;;;;;;;;;;22.70;99.90;;;;;;5019884;28;19916;-71
2022/05/08 11:57:24;;;;;;;;;;;22.70;99.90;;;;;;5019766;28;19913;-71
2022/05/08 12:00:16;;;;;;;;;;;23.00;99.90;;;;;;5025312;28;19909;-70
2022/05/08 12:03:02;;;;;;;;;;;;;;;;;;;;;
2022/05/08 12:05:33;;;;;;;;;;;23.20;99.90;;;;;;5018806;28;19927;-70
2022/05/08 12:08:10;;;;;;;;;;;23.20;99.90;;;;;;5017153;28;19910;-70
2022/05/08 12:10:36;;;;;;;;;;;23.30;99.90;;;;;;5016355;28;19913;-70
2022/05/08 12:13:09;;;;;;;;;;;23.20;99.90;;;;;;5025401;28;19924;-70
2022/05/08 12:15:40;;;;;;;;;;;23.40;99.90;;;;;;5014442;28;19917;-70
2022/05/08 12:18:09;;;;;;;;;;;23.50;99.90;;;;;;5016027;28;19995;-70
2022/05/08 12:20:46;;;;;;;;;;;23.70;99.90;;;;;;5000477;28;19968;-71
2022/05/08 12:23:11;;;;;;;;;;;23.70;99.90;;;;;;5003835;28;20375;-70
2022/05/08 12:25:38;;;;;;;;;;;23.60;99.90;;;;;;5007395;28;19920;-70
2022/05/08 12:31:26;;;;;;;;;;;23.30;99.90;;;;;;4914735;29;20440;-70
2022/05/08 12:33:52;;;;;;;;;;;23.10;99.90;;;;;;4916445;29;20404;-70
2022/05/08 12:36:21;;;;;;;;;;;23.10;99.90;;;;;;4991584;28;19940;-71
2022/05/08 12:38:47;;;;;;;;;;;23.20;99.90;;;;;;5015305;28;20375;-71
2022/05/08 12:41:46;;;;;;;;;;;23.20;99.90;;;;;;5016545;28;19989;-71
2022/05/08 12:44:05;;;;;;;;;;;23.20;99.90;;;;;;5012898;28;19920;-70
2022/05/08 12:46:31;;;;;;;;;;;23.40;99.90;;;;;;5026034;28;19913;-70
2022/05/08 12:49:16;;;;;;;;;;;;;;;;;;;;;
2022/05/08 13:01:06;;;;;;;;;;;23.30;99.90;;;;;;4962436;28;19961;-71
2022/05/08 13:03:53;;;;;;;;;;;23.30;99.90;;;;;;5007780;28;19913;-70
2022/05/08 13:06:18;;;;;;;;;;;23.10;99.90;;;;;;5017585;28;19968;-70
2022/05/08 13:09:13;;;;;;;;;;;23.00;99.90;;;;;;5021839;28;19913;-70
2022/05/08 13:11:49;;;;;;;;;;;23.10;99.90;;;;;;5009920;28;19924;-70
2022/05/08 13:14:18;;;;;;;;;;;23.30;99.90;;;;;;5029274;28;19909;-70
2022/05/08 13:16:44;;;;;;;;;;;23.40;99.90;;;;;;5028608;28;20012;-70
2022/05/08 13:19:10;;;;;;;;;;;23.40;99.90;;;;;;5024246;28;19949;-70
2022/05/08 13:21:39;;;;;;;;;;;23.60;99.90;;;;;;5024997;28;19921;-70
2022/05/08 13:24:11;;;;;;;;;;;23.50;99.90;;;;;;5027638;28;19913;-70
2022/05/08 13:26:46;;;;;;;;;;;23.50;99.90;;;;;;5016239;28;20382;-71
2022/05/08 13:29:19;;;;;;;;;;;23.70;99.90;;;;;;5021527;28;19960;-70
2022/05/08 13:31:45;;;;;;;;;;;23.70;99.90;;;;;;5023026;28;19917;-70
2022/05/08 13:34:21;;;;;;;;;;;23.60;99.90;;;;;;5028596;28;19959;-70
2022/05/08 13:36:46;;;;;;;;;;;23.60;99.90;;;;;;5022627;28;19924;-71
2022/05/08 13:39:12;;;;;;;;;;;23.60;99.90;;;;;;5020512;28;19913;-71
2022/05/08 13:41:38;;;;;;;;;;;23.60;99.90;;;;;;5031318;28;19916;-70
2022/05/08 13:44:04;;;;;;;;;;;23.70;99.90;;;;;;5028797;28;19914;-70
2022/05/08 13:46:30;;;;;;;;;;;23.50;99.90;;;;;;5012319;28;20172;-71
2022/05/08 13:49:41;;;;;;;;;;;23.60;99.90;;;;;;5012130;28;19994;-70
2022/05/08 13:51:44;;;;;;;;;;;23.80;99.90;;;;;;5004858;28;19918;-71
2022/05/08 13:54:16;;;;;;;;;;;23.80;99.90;;;;;;5007858;28;19916;-70
2022/05/08 13:56:45;;;;;;;;;;;23.80;99.90;;;;;;5006753;28;19913;-71
2022/05/08 13:59:23;;;;;;;;;;;23.70;99.90;;;;;;5007229;28;19914;-69
2022/05/08 14:01:49;;;;;;;;;;;23.60;99.90;;;;;;4995839;28;19910;-70
2022/05/08 14:10:41;;;;;;;;;;;23.80;99.90;;;;;;4916629;29;19962;-71
2022/05/08 14:23:12;;;;;;;;;;;;;;;;;;;;;
2022/05/08 14:38:38;;;;;;;;;;;;;;;;;;;;;
2022/05/08 14:41:23;;;;;;;;;;;23.30;99.90;;;;;;4989712;28;19913;-71
2022/05/08 14:43:49;;;;;;;;;;;23.20;99.90;;;;;;5009452;28;19913;-72
2022/05/08 14:49:19;;;;;;;;;;;23.30;99.90;;;;;;4974491;28;19964;-72
2022/05/08 14:51:45;;;;;;;;;;;23.60;99.90;;;;;;5009036;28;19921;-71
2022/05/08 14:54:14;;;;;;;;;;;23.60;99.90;;;;;;5005256;28;19914;-74
2022/05/08 14:56:39;;;;;;;;;;;23.50;99.90;;;;;;4987087;28;20282;-71
2022/05/08 14:59:10;;;;;;;;;;;23.30;99.90;;;;;;5017359;28;20020;-71
2022/05/08 15:01:44;;;;;;;;;;;23.40;99.90;;;;;;5008184;28;19963;-71
2022/05/08 15:04:10;;;;;;;;;;;23.40;99.90;;;;;;5004050;28;19914;-71
2022/05/08 15:09:40;;;;;;;;;;;23.30;99.90;;;;;;5008532;28;20004;-71
2022/05/08 15:12:28;;;;;;;;;;;23.40;99.90;;;;;;5005982;28;20367;-71
2022/05/08 15:14:53;;;;;;;;;;;23.50;99.90;;;;;;4986597;28;19914;-71
2022/05/08 15:20:19;;;;;;;;;;;23.30;99.90;;;;;;4975121;28;19938;-71
2022/05/08 15:22:45;;;;;;;;;;;23.30;99.90;;;;;;5007824;28;19973;-71
2022/05/08 15:31:42;;;;;;;;;;;;;;;;;;;;;
2022/05/08 15:34:08;;;;;;;;;;;22.90;99.90;;;;;;5002478;28;19989;-71
2022/05/08 15:37:20;;;;;;;;;;;;;;;;;;;;;
2022/05/08 15:40:14;;;;;;;;;;;22.90;99.90;;;;;;4953697;28;19915;-70
2022/05/08 15:45:47;;;;;;;;;;;23.00;99.90;;;;;;4910699;29;19915;-70
2022/05/08 15:48:22;;;;;;;;;;;23.30;99.90;;;;;;4907532;29;20006;-71
2022/05/08 15:54:30;;;;;;;;;;;23.30;99.90;;;;;;4841958;29;20383;-71
2022/05/08 15:57:23;;;;;;;;;;;23.10;99.90;;;;;;4842637;29;19964;-71
2022/05/08 16:00:16;;;;;;;;;;;23.00;99.90;;;;;;4843586;29;20007;-70
2022/05/08 16:03:14;;;;;;;;;;;22.90;99.90;;;;;;4835169;29;19973;-70
2022/05/08 16:06:05;;;;;;;;;;;23.10;99.90;;;;;;4847059;29;19929;-71
2022/05/08 16:08:55;;;;;;;;;;;23.20;99.90;;;;;;5001209;28;19964;-71
2022/05/08 16:23:37;;;;;;;;;;;;;;;;;;;;;
2022/05/08 16:26:38;;;;;;;;;;;22.80;99.90;;;;;;5009976;28;19917;-71
2022/05/08 16:29:35;;;;;;;;;;;22.70;99.90;;;;;;4991475;28;19972;-70
2022/05/08 16:41:31;;;;;;;;;;;22.90;99.90;;;;;;4915904;29;19922;-70
2022/05/08 16:44:06;;;;;;;;;;;22.90;99.90;;;;;;4916056;29;19922;-71
2022/05/08 16:46:36;;;;;;;;;;;22.90;99.90;;;;;;5006436;28;19917;-71
2022/05/08 16:49:02;;;;;;;;;;;22.90;99.90;;;;;;5021357;28;19917;-71
2022/05/08 16:51:35;;;;;;;;;;;22.90;99.90;;;;;;5015007;28;19924;-70
2022/05/08 16:54:11;;;;;;;;;;;;;;;;;;;;;
2022/05/08 17:00:01;;;;;;;;;;;22.60;99.90;;;;;;4922278;29;20032;-69
2022/05/08 17:02:27;;;;;;;;;;;22.50;99.90;;;;;;4915455;29;20374;-68
2022/05/08 17:04:53;;;;;;;;;;;22.50;99.90;;;;;;5000947;28;20272;-69
2022/05/08 17:07:19;;;;;;;;;;;22.50;99.90;;;;;;5017208;28;19920;-69
2022/05/08 17:09:45;;;;;;;;;;;22.50;99.90;;;;;;5017021;28;19914;-67
2022/05/08 17:12:14;;;;;;;;;;;22.50;99.90;;;;;;5012209;28;19917;-68
2022/05/08 17:14:39;;;;;;;;;;;22.60;99.90;;;;;;5014727;28;19944;-67
2022/05/08 17:17:05;;;;;;;;;;;22.70;99.90;;;;;;4997174;28;19921;-69
2022/05/08 17:22:27;;;;;;;;;;;22.70;99.90;;;;;;4988851;28;19959;-69
2022/05/08 17:24:55;;;;;;;;;;;22.70;99.90;;;;;;5015568;28;19913;-69
2022/05/08 17:33:26;;;;;;;;;;;22.70;99.90;;;;;;5018838;28;19933;-70
2022/05/08 17:36:01;;;;;;;;;;;23.00;99.90;;;;;;5028167;28;19921;-70
2022/05/08 17:38:30;;;;;;;;;;;22.70;99.90;;;;;;5024900;28;19971;-71
2022/05/08 17:40:56;;;;;;;;;;;22.50;99.90;;;;;;5011242;28;19930;-70
2022/05/08 17:49:13;;;;;;;;;;;22.00;99.90;;;;;;4971419;28;20342;-71
2022/05/08 17:51:39;;;;;;;;;;;21.80;99.90;;;;;;4994029;28;20404;-71
2022/05/08 17:54:14;;;;;;;;;;;21.70;99.90;;;;;;5021260;28;19920;-71
2022/05/08 17:59:23;;;;;;;;;;;21.40;99.90;;;;;;5029341;28;20394;-71
2022/05/08 18:01:49;;;;;;;;;;;21.30;99.90;;;;;;5012447;28;20003;-71
2022/05/08 18:10:30;;;;;;;;;;;21.00;99.90;;;;;;4932918;28;19926;-70
2022/05/08 18:12:55;;;;;;;;;;;20.90;99.90;;;;;;4996842;28;19949;-71
2022/05/08 18:15:21;;;;;;;;;;;20.80;99.90;;;;;;5015869;28;19910;-70
2022/05/08 18:20:51;;;;;;;;;;;20.80;99.90;;;;;;4940910;28;20000;-71
2022/05/08 18:23:45;;;;;;;;;;;20.70;99.90;;;;;;5020625;28;19952;-71
2022/05/08 18:26:33;;;;;;;;;;;;;;;;;;;;;
2022/05/08 18:35:17;;;;;;;;;;;20.40;99.90;;;;;;5016519;28;19914;-72
2022/05/08 18:37:44;;;;;;;;;;;20.40;99.90;;;;;;5013415;28;20899;-71
2022/05/08 18:40:20;;;;;;;;;;;20.30;99.90;;;;;;5017788;28;19914;-70
2022/05/08 18:58:29;;;;;;;;;;;20.20;99.90;;;;;;5023404;28;19920;-80
2022/05/08 20:13:17;;;;;;;;;;;19.70;99.90;;;;;;4883188;29;19923;-78
2022/05/08 20:15:52;;;;;;;;;;;19.60;99.90;;;;;;4831428;29;20027;-80
2022/05/08 20:18:46;;;;;;;;;;;;;;;;;;;;;
2022/05/08 20:33:58;;;;;;;;;;;;;;;;;;;;;
2022/05/08 20:36:59;;;;;;;;;;;19.40;99.90;;;;;;4852788;29;19968;-80
2022/05/08 20:40:08;;;;;;;;;;;;;;;;;;;;;
2022/05/08 20:42:52;;;;;;;;;;;19.50;99.90;;;;;;4836040;29;20006;-79
2022/05/08 20:45:18;;;;;;;;;;;19.40;99.90;;;;;;4841660;29;19979;-79
2022/05/08 20:48:43;;;;;;;;;;;19.40;99.90;;;;;;4945673;29;19907;-79
2022/05/08 20:51:35;;;;;;;;;;;;;;;;;;;;;
2022/05/08 20:54:26;;;;;;;;;;;19.40;99.90;;;;;;4932040;29;19951;-79
2022/05/08 20:57:01;;;;;;;;;;;19.40;99.90;;;;;;4924699;29;19955;-79
2022/05/08 21:03:37;;;;;;;;;;;;;;;;;;;;;
2022/05/08 21:09:57;;;;;;;;;;;19.30;99.90;;;;;;4921717;29;20010;-81
2022/05/08 21:12:26;;;;;;;;;;;19.20;99.90;;;;;;4960366;28;19929;-80
2022/05/08 21:14:58;;;;;;;;;;;19.20;99.90;;;;;;4959847;28;19915;-81
2022/05/08 21:20:46;;;;;;;;;;;19.10;99.90;;;;;;4923012;29;20003;-81
2022/05/08 21:23:12;;;;;;;;;;;19.20;99.90;;;;;;4955746;28;19918;-82
2022/05/08 21:25:41;;;;;;;;;;;19.20;99.90;;;;;;4946561;28;20985;-82
2022/05/08 21:31:42;;;;;;;;;;;19.10;99.90;;;;;;4947715;28;19994;-81
2022/05/08 21:34:24;;;;;;;;;;;19.20;99.90;;;;;;4967274;28;19919;-80
2022/05/08 21:36:50;;;;;;;;;;;19.10;99.90;;;;;;4967095;28;19918;-80
2022/05/08 21:39:38;;;;;;;;;;;19.20;99.90;;;;;;4961074;28;19965;-80
2022/05/08 21:46:10;;;;;;;;;;;19.10;99.90;;;;;;4904748;29;19922;-80
2022/05/08 21:51:50;;;;;;;;;;;19.00;99.90;;;;;;4944027;29;19937;-79
2022/05/08 21:54:32;;;;;;;;;;;19.10;99.90;;;;;;4925259;29;20044;-80
2022/05/08 22:00:43;;;;;;;;;;;;;;;;;;;;;
2022/05/08 22:16:12;;;;;;;;;;;;;;;;;;;;;
2022/05/08 22:34:18;;;;;;;;;;;18.80;99.90;;;;;;4848504;29;19936;-81
2022/05/08 22:46:51;;;;;;;;;;;18.60;99.90;;;;;;4871621;29;19931;-81
2022/05/08 22:59:06;;;;;;;;;;;18.60;99.90;;;;;;4813211;29;19962;-80
2022/05/08 23:05:05;;;;;;;;;;;18.50;99.90;;;;;;4861857;29;19935;-80
